Crown Topaz — 3FAS9 — position and weather

sailwx.info

Track history (hours):
 
Tides and Currents Weather Stations Pressure Air Temp Water Temp Dewpoint Dewpoint Depression Visibility Wind Speed Wind Dir Waves Ship Positions

Crown Topaz

Last reported at 2015-Aug-22 23:33 UTC. Time now 2015-Sep-04 23:10 UTC.
Position N 17°36' W 063°08'.
Warning: this ship's position is 12 days out of date.

Length 152 m; draft 6.3 m.

Type: Cargo ship. MMSI: 357144000.

Date/timePositionNaut miles runAvg speedWind from/ knotsBaromVisibWave heightAir tempDewpointWater temp
2015-Aug-22 23:33N 17°36' W 063°08'1818.4
2015-Aug-22 22:33N 17°54' W 063°06'7 7.0
2015-Aug-22 21:33N 18°00' W 063°03'0 0.0
2015-Aug-22 20:27N 18°00' W 063°03'0 0.0
2015-Aug-22 19:27N 18°00' W 063°03'0 0.0
2015-Aug-22 18:27N 18°00' W 063°03'0 0.0
2015-Aug-22 17:27N 18°00' W 063°03'0 0.0
2015-Aug-22 16:27N 18°00' W 063°03'0 0.0
2015-Aug-22 15:27N 18°00' W 063°03'0 0.0
2015-Aug-22 14:27N 18°00' W 063°03'0 0.0
2015-Aug-22 13:27N 18°00' W 063°03'0 0.0
2015-Aug-22 12:30N 18°00' W 063°03'0 0.0
2015-Aug-22 11:30N 18°00' W 063°03'5 5.0
2015-Aug-22 10:32N 17°57' W 063°06'6 5.7
2015-Aug-22 09:28N 17°52' W 063°09'1 1.1
2015-Aug-22 08:28N 17°51' W 063°08'1 1.2
2015-Aug-22 07:32N 17°50' W 063°07'1 1.4
2015-Aug-22 06:28N 17°49' W 063°06'1 1.5
2015-Aug-22 05:31N 17°48' W 063°05'5 5.4
2015-Aug-22 04:33N 17°43' W 063°05'2114.5
2015-Aug-22 03:07N 17°23' W 062°59'3915.2
2015-Aug-22 00:33N 16°52' W 062°33'1515.0
2015-Aug-21 23:34N 16°41' W 062°23'1515.5
2015-Aug-21 22:34N 16°29' W 062°13'1615.1
2015-Aug-21 21:32N 16°17' W 062°03'1514.7
2015-Aug-21 20:31N 16°05' W 061°53'1413.9
2015-Aug-21 19:29N 15°55' W 061°43'1513.8
2015-Aug-21 18:25N 16°04' W 061°31'1011.6
2015-Aug-21 17:33N 16°14' W 061°32'0 0.2
2015-Aug-21 16:33N 16°14' W 061°33'0 0.0
2015-Aug-21 15:32N 16°14' W 061°33'0 0.0
2015-Aug-21 14:21N 16°14' W 061°33'0 0.0
2015-Aug-21 13:24N 16°14' W 061°33'0 0.0
2015-Aug-21 12:33N 16°14' W 061°33'0 0.0
2015-Aug-21 11:32N 16°14' W 061°33'0 0.0
2015-Aug-21 10:33N 16°14' W 061°33'1 0.7
2015-Aug-21 09:33N 16°13' W 061°32'9 8.8
2015-Aug-21 08:31N 16°08' W 061°24'4 1.9
2015-Aug-21 06:21N 16°05' W 061°21'1 1.3
2015-Aug-21 05:32N 16°05' W 061°20'23 5.4
2015-Aug-21 01:13N 16°12' W 060°57'  
2015-Aug-16 06:33N 38°52' W 030°43'1919.4
2015-Aug-16 05:33N 39°03' W 030°23'2019.7
2015-Aug-16 04:33N 39°13' W 030°01'2019.7
2015-Aug-16 03:33N 39°23' W 029°39'1919.3
2015-Aug-16 02:33N 39°33' W 029°18'1918.9
2015-Aug-16 01:33N 39°43' W 028°57'1919.2
2015-Aug-16 00:34N 39°53' W 028°36'1919.1
2015-Aug-15 23:33N 40°03' W 028°14'2518.9
2015-Aug-15 22:13N 40°16' W 027°46'34519.1
2015-Aug-15 04:06N 43°14' W 021°09'90518.6
2015-Aug-13 03:34N 49°51' W 001°27'2120.7
2015-Aug-13 02:34N 49°43' W 000°57'2121.2
2015-Aug-13 01:34N 49°35' W 000°27'1716.9
2015-Aug-13 00:33N 49°28' W 000°03'1312.5
2015-Aug-12 23:34N 49°26' E 000°16'  
Track history (hours):
 
Tides and Currents Weather Stations Pressure Air Temp Water Temp Dewpoint Dewpoint Depression Visibility Wind Speed Wind Dir Waves Ship Positions

Crown Topaz

Last reported at 2015-Aug-22 23:33 UTC. Time now 2015-Sep-04 23:10 UTC.
Position N 17°36' W 063°08'.
Warning: this ship's position is 12 days out of date.

Length 152 m; draft 6.3 m.

Type: Cargo ship. MMSI: 357144000.

Date/timePositionNaut miles runAvg speedWind from/ knotsBaromVisibWave heightAir tempDewpointWater temp
2015-Aug-22 23:33N 17°36' W 063°08'1818.4
2015-Aug-22 22:33N 17°54' W 063°06'7 7.0
2015-Aug-22 21:33N 18°00' W 063°03'0 0.0
2015-Aug-22 20:27N 18°00' W 063°03'0 0.0
2015-Aug-22 19:27N 18°00' W 063°03'0 0.0
2015-Aug-22 18:27N 18°00' W 063°03'0 0.0
2015-Aug-22 17:27N 18°00' W 063°03'0 0.0
2015-Aug-22 16:27N 18°00' W 063°03'0 0.0
2015-Aug-22 15:27N 18°00' W 063°03'0 0.0
2015-Aug-22 14:27N 18°00' W 063°03'0 0.0
2015-Aug-22 13:27N 18°00' W 063°03'0 0.0
2015-Aug-22 12:30N 18°00' W 063°03'0 0.0
2015-Aug-22 11:30N 18°00' W 063°03'5 5.0
2015-Aug-22 10:32N 17°57' W 063°06'6 5.7
2015-Aug-22 09:28N 17°52' W 063°09'1 1.1
2015-Aug-22 08:28N 17°51' W 063°08'1 1.2
2015-Aug-22 07:32N 17°50' W 063°07'1 1.4
2015-Aug-22 06:28N 17°49' W 063°06'1 1.5
2015-Aug-22 05:31N 17°48' W 063°05'5 5.4
2015-Aug-22 04:33N 17°43' W 063°05'2114.5
2015-Aug-22 03:07N 17°23' W 062°59'3915.2
2015-Aug-22 00:33N 16°52' W 062°33'1515.0
2015-Aug-21 23:34N 16°41' W 062°23'1515.5
2015-Aug-21 22:34N 16°29' W 062°13'1615.1
2015-Aug-21 21:32N 16°17' W 062°03'1514.7
2015-Aug-21 20:31N 16°05' W 061°53'1413.9
2015-Aug-21 19:29N 15°55' W 061°43'1513.8
2015-Aug-21 18:25N 16°04' W 061°31'1011.6
2015-Aug-21 17:33N 16°14' W 061°32'0 0.2
2015-Aug-21 16:33N 16°14' W 061°33'0 0.0
2015-Aug-21 15:32N 16°14' W 061°33'0 0.0
2015-Aug-21 14:21N 16°14' W 061°33'0 0.0
2015-Aug-21 13:24N 16°14' W 061°33'0 0.0
2015-Aug-21 12:33N 16°14' W 061°33'0 0.0
2015-Aug-21 11:32N 16°14' W 061°33'0 0.0
2015-Aug-21 10:33N 16°14' W 061°33'1 0.7
2015-Aug-21 09:33N 16°13' W 061°32'9 8.8
2015-Aug-21 08:31N 16°08' W 061°24'4 1.9
2015-Aug-21 06:21N 16°05' W 061°21'1 1.3
2015-Aug-21 05:32N 16°05' W 061°20'23 5.4
2015-Aug-21 01:13N 16°12' W 060°57'  
2015-Aug-16 06:33N 38°52' W 030°43'1919.4
2015-Aug-16 05:33N 39°03' W 030°23'2019.7
2015-Aug-16 04:33N 39°13' W 030°01'2019.7
2015-Aug-16 03:33N 39°23' W 029°39'1919.3
2015-Aug-16 02:33N 39°33' W 029°18'1918.9
2015-Aug-16 01:33N 39°43' W 028°57'1919.2
2015-Aug-16 00:34N 39°53' W 028°36'1919.1
2015-Aug-15 23:33N 40°03' W 028°14'2518.9
2015-Aug-15 22:13N 40°16' W 027°46'34519.1
2015-Aug-15 04:06N 43°14' W 021°09'90518.6
2015-Aug-13 03:34N 49°51' W 001°27'2120.7
2015-Aug-13 02:34N 49°43' W 000°57'2121.2
2015-Aug-13 01:34N 49°35' W 000°27'1716.9
2015-Aug-13 00:33N 49°28' W 000°03'1312.5
2015-Aug-12 23:34N 49°26' E 000°16'  

Dump ship's entire track history